sensor_id;sensor_type;location;lat;lon;timestamp;pressure;altitude;pressure_sealevel;temperature;humidity
8101;BME280;4093;53.470;9.832;2023-01-30T00:01:42;100889.41;;;5.75;100.00
8101;BME280;4093;53.470;9.832;2023-01-30T00:04:10;100879.06;;;5.57;100.00
8101;BME280;4093;53.470;9.832;2023-01-30T00:06:42;100886.88;;;5.85;99.80
8101;BME280;4093;53.470;9.832;2023-01-30T00:09:11;100874.00;;;5.75;99.72
8101;BME280;4093;53.470;9.832;2023-01-30T00:11:40;100876.78;;;6.21;98.40
8101;BME280;4093;53.470;9.832;2023-01-30T00:14:09;100858.78;;;6.12;98.28
8101;BME280;4093;53.470;9.832;2023-01-30T00:16:36;100861.31;;;6.08;97.54
8101;BME280;4093;53.470;9.832;2023-01-30T00:19:04;100839.13;;;6.17;98.86
8101;BME280;4093;53.470;9.832;2023-01-30T00:21:32;100829.56;;;5.86;99.63
8101;BME280;4093;53.470;9.832;2023-01-30T00:23:59;100841.66;;;6.20;99.37
8101;BME280;4093;53.470;9.832;2023-01-30T00:26:27;100848.47;;;5.98;98.79
8101;BME280;4093;53.470;9.832;2023-01-30T00:28:55;100845.13;;;6.25;99.25
8101;BME280;4093;53.470;9.832;2023-01-30T00:31:24;100842.56;;;6.24;99.48
8101;BME280;4093;53.470;9.832;2023-01-30T00:33:51;100817.75;;;6.28;98.08
8101;BME280;4093;53.470;9.832;2023-01-30T00:36:19;100815.16;;;6.32;98.29
8101;BME280;4093;53.470;9.832;2023-01-30T00:38:46;100816.00;;;6.20;98.72
8101;BME280;4093;53.470;9.832;2023-01-30T00:41:14;100815.19;;;6.31;98.46
8101;BME280;4093;53.470;9.832;2023-01-30T00:43:44;100791.16;;;5.95;100.00
8101;BME280;4093;53.470;9.832;2023-01-30T00:46:32;100794.59;;;6.09;99.50
8101;BME280;4093;53.470;9.832;2023-01-30T00:49:18;100786.94;;;6.43;97.79
8101;BME280;4093;53.470;9.832;2023-01-30T00:51:46;100775.78;;;6.22;98.41
8101;BME280;4093;53.470;9.832;2023-01-30T00:54:14;100765.53;;;6.15;98.62
8101;BME280;4093;53.470;9.832;2023-01-30T00:56:41;100741.56;;;6.05;98.64
8101;BME280;4093;53.470;9.832;2023-01-30T00:59:09;100755.25;;;6.15;99.62
8101;BME280;4093;53.470;9.832;2023-01-30T01:01:38;100749.25;;;6.54;97.58
8101;BME280;4093;53.470;9.832;2023-01-30T01:04:06;100734.72;;;6.18;98.16
8101;BME280;4093;53.470;9.832;2023-01-30T01:06:35;100698.78;;;6.06;98.14
8101;BME280;4093;53.470;9.832;2023-01-30T01:09:04;100727.88;;;6.14;99.43
8101;BME280;4093;53.470;9.832;2023-01-30T01:11:31;100731.28;;;6.49;98.19
8101;BME280;4093;53.470;9.832;2023-01-30T01:14:00;100715.03;;;6.46;97.54
8101;BME280;4093;53.470;9.832;2023-01-30T01:16:30;100715.00;;;6.66;96.05
8101;BME280;4093;53.470;9.832;2023-01-30T01:19:00;100667.94;;;6.38;96.55
8101;BME280;4093;53.470;9.832;2023-01-30T01:21:28;100704.75;;;6.44;98.18
8101;BME280;4093;53.470;9.832;2023-01-30T01:23:57;100693.63;;;6.41;98.33
8101;BME280;4093;53.470;9.832;2023-01-30T01:26:25;100700.47;;;6.51;99.46
8101;BME280;4093;53.470;9.832;2023-01-30T01:28:54;100714.13;;;6.78;97.06
8101;BME280;4093;53.470;9.832;2023-01-30T01:31:22;100673.91;;;6.60;98.79
8101;BME280;4093;53.470;9.832;2023-01-30T01:33:51;100679.91;;;6.59;99.62
8101;BME280;4093;53.470;9.832;2023-01-30T01:36:20;100683.31;;;6.62;98.46
8101;BME280;4093;53.470;9.832;2023-01-30T01:39:08;100674.66;;;6.92;97.55
8101;BME280;4093;53.470;9.832;2023-01-30T01:41:35;100660.19;;;6.64;98.72
8101;BME280;4093;53.470;9.832;2023-01-30T01:44:04;100662.69;;;6.93;97.59
8101;BME280;4093;53.470;9.832;2023-01-30T01:46:34;100646.31;;;7.08;97.37
8101;BME280;4093;53.470;9.832;2023-01-30T01:49:06;100637.16;;;6.33;100.00
8101;BME280;4093;53.470;9.832;2023-01-30T01:51:38;100638.81;;;6.54;100.00
8101;BME280;4093;53.470;9.832;2023-01-30T01:54:09;100639.53;;;6.94;99.91
8101;BME280;4093;53.470;9.832;2023-01-30T01:56:41;100646.47;;;6.66;100.00
8101;BME280;4093;53.470;9.832;2023-01-30T01:59:13;100629.28;;;6.82;100.00
8101;BME280;4093;53.470;9.832;2023-01-30T02:01:42;100627.47;;;7.04;100.00
8101;BME280;4093;53.470;9.832;2023-01-30T02:04:09;100626.78;;;6.67;100.00
8101;BME280;4093;53.470;9.832;2023-01-30T02:06:40;100617.34;;;6.75;100.00
8101;BME280;4093;53.470;9.832;2023-01-30T02:09:09;100625.81;;;6.94;100.00
8101;BME280;4093;53.470;9.832;2023-01-30T02:11:41;100610.44;;;6.85;100.00
8101;BME280;4093;53.470;9.832;2023-01-30T02:14:11;100621.63;;;6.73;100.00
8101;BME280;4093;53.470;9.832;2023-01-30T02:16:40;100607.94;;;6.72;100.00
8101;BME280;4093;53.470;9.832;2023-01-30T02:19:20;100613.00;;;6.91;100.00
8101;BME280;4093;53.470;9.832;2023-01-30T02:22:07;100606.19;;;6.73;100.00
8101;BME280;4093;53.470;9.832;2023-01-30T02:27:46;100598.25;;;7.21;100.00
8101;BME280;4093;53.470;9.832;2023-01-30T02:33:17;100588.88;;;7.10;100.00
8101;BME280;4093;53.470;9.832;2023-01-30T02:35:53;100588.00;;;7.14;100.00
8101;BME280;4093;53.470;9.832;2023-01-30T02:38:32;100573.44;;;7.16;100.00
8101;BME280;4093;53.470;9.832;2023-01-30T02:41:12;100569.25;;;6.97;100.00
8101;BME280;4093;53.470;9.832;2023-01-30T02:43:49;100567.56;;;6.96;100.00
8101;BME280;4093;53.470;9.832;2023-01-30T02:46:28;100571.53;;;7.46;100.00
8101;BME280;4093;53.470;9.832;2023-01-30T02:49:03;100528.00;;;7.17;100.00
8101;BME280;4093;53.470;9.832;2023-01-30T02:51:35;100556.22;;;7.26;100.00
8101;BME280;4093;53.470;9.832;2023-01-30T02:54:04;100545.97;;;7.23;100.00
8101;BME280;4093;53.470;9.832;2023-01-30T02:56:43;100532.09;;;7.42;100.00
8101;BME280;4093;53.470;9.832;2023-01-30T02:59:11;100538.00;;;7.54;100.00
8101;BME280;4093;53.470;9.832;2023-01-30T03:02:02;100527.91;;;7.31;100.00
8101;BME280;4093;53.470;9.832;2023-01-30T03:04:48;100532.09;;;7.44;100.00
8101;BME280;4093;53.470;9.832;2023-01-30T03:07:26;100529.47;;;7.50;100.00
8101;BME280;4093;53.470;9.832;2023-01-30T03:10:01;100519.47;;;7.15;100.00
8101;BME280;4093;53.470;9.832;2023-01-30T03:12:39;100468.78;;;7.26;100.00
8101;BME280;4093;53.470;9.832;2023-01-30T03:15:12;100512.34;;;7.48;100.00
8101;BME280;4093;53.470;9.832;2023-01-30T03:17:45;100514.81;;;7.60;100.00
8101;BME280;4093;53.470;9.832;2023-01-30T03:20:14;100517.25;;;7.75;100.00
8101;BME280;4093;53.470;9.832;2023-01-30T03:22:42;100512.34;;;7.45;100.00
8101;BME280;4093;53.470;9.832;2023-01-30T03:25:18;100508.84;;;7.52;100.00
8101;BME280;4093;53.470;9.832;2023-01-30T03:27:47;100491.69;;;7.58;100.00
8101;BME280;4093;53.470;9.832;2023-01-30T03:30:17;100503.59;;;7.65;100.00
8101;BME280;4093;53.470;9.832;2023-01-30T03:32:46;100486.47;;;7.61;100.00
8101;BME280;4093;53.470;9.832;2023-01-30T03:35:13;100493.22;;;7.75;100.00
8101;BME280;4093;53.470;9.832;2023-01-30T03:37:43;100484.84;;;7.54;100.00
8101;BME280;4093;53.470;9.832;2023-01-30T03:40:12;100495.56;;;7.99;100.00
8101;BME280;4093;53.470;9.832;2023-01-30T03:42:41;100482.19;;;7.65;100.00
8101;BME280;4093;53.470;9.832;2023-01-30T03:45:10;100489.00;;;7.69;100.00
8101;BME280;4093;53.470;9.832;2023-01-30T03:47:38;100483.53;;;8.00;100.00
8101;BME280;4093;53.470;9.832;2023-01-30T03:50:08;100479.28;;;7.93;100.00
8101;BME280;4093;53.470;9.832;2023-01-30T03:52:36;100485.16;;;8.07;100.00
8101;BME280;4093;53.470;9.832;2023-01-30T03:55:05;100482.75;;;7.93;100.00
8101;BME280;4093;53.470;9.832;2023-01-30T03:57:32;100467.28;;;7.96;100.00
8101;BME280;4093;53.470;9.832;2023-01-30T04:00:00;100472.34;;;8.02;100.00
8101;BME280;4093;53.470;9.832;2023-01-30T04:02:28;100465.38;;;8.10;100.00
8101;BME280;4093;53.470;9.832;2023-01-30T04:04:55;100468.88;;;8.03;100.00
8101;BME280;4093;53.470;9.832;2023-01-30T04:07:25;100469.06;;;7.88;100.00
8101;BME280;4093;53.470;9.832;2023-01-30T04:09:54;100477.41;;;8.10;100.00
8101;BME280;4093;53.470;9.832;2023-01-30T04:12:22;100471.28;;;8.17;100.00
8101;BME280;4093;53.470;9.832;2023-01-30T04:14:50;100459.72;;;7.81;100.00
8101;BME280;4093;53.470;9.832;2023-01-30T04:17:17;100460.19;;;8.15;100.00
8101;BME280;4093;53.470;9.832;2023-01-30T04:19:45;100453.03;;;8.35;100.00
8101;BME280;4093;53.470;9.832;2023-01-30T04:22:12;100457.50;;;8.23;100.00
8101;BME280;4093;53.470;9.832;2023-01-30T04:24:41;100445.53;;;8.17;99.78
8101;BME280;4093;53.470;9.832;2023-01-30T04:27:09;100459.91;;;8.35;100.00
8101;BME280;4093;53.470;9.832;2023-01-30T04:29:36;100465.94;;;8.34;99.79
8101;BME280;4093;53.470;9.832;2023-01-30T04:32:04;100472.03;;;8.27;100.00
8101;BME280;4093;53.470;9.832;2023-01-30T04:34:32;100471.91;;;8.38;100.00
8101;BME280;4093;53.470;9.832;2023-01-30T04:37:00;100472.34;;;8.01;100.00
8101;BME280;4093;53.470;9.832;2023-01-30T04:39:27;100457.50;;;8.23;100.00
8101;BME280;4093;53.470;9.832;2023-01-30T04:41:56;100447.97;;;8.31;99.80
8101;BME280;4093;53.470;9.832;2023-01-30T04:44:24;100450.50;;;8.32;98.51
8101;BME280;4093;53.470;9.832;2023-01-30T04:46:52;100457.31;;;8.37;99.00
8101;BME280;4093;53.470;9.832;2023-01-30T04:49:20;100461.81;;;8.21;100.00
8101;BME280;4093;53.470;9.832;2023-01-30T04:51:48;100463.63;;;8.11;100.00
8101;BME280;4093;53.470;9.832;2023-01-30T04:54:15;100452.41;;;8.18;98.94
8101;BME280;4093;53.470;9.832;2023-01-30T04:56:43;100451.38;;;8.30;99.39
8101;BME280;4093;53.470;9.832;2023-01-30T04:59:12;100460.25;;;8.75;97.56
8101;BME280;4093;53.470;9.832;2023-01-30T05:01:40;100460.75;;;8.40;98.04
8101;BME280;4093;53.470;9.832;2023-01-30T05:04:08;100458.78;;;8.59;98.01
8101;BME280;4093;53.470;9.832;2023-01-30T05:06:35;100452.56;;;8.71;97.05
8101;BME280;4093;53.470;9.832;2023-01-30T05:09:04;100444.91;;;8.66;97.24
8101;BME280;4093;53.470;9.832;2023-01-30T05:11:32;100438.63;;;8.22;97.37
8101;BME280;4093;53.470;9.832;2023-01-30T05:14:00;100453.59;;;7.89;99.43
8101;BME280;4093;53.470;9.832;2023-01-30T05:16:29;100442.41;;;7.94;98.01
8101;BME280;4093;53.470;9.832;2023-01-30T05:18:57;100446.63;;;7.99;98.79
8101;BME280;4093;53.470;9.832;2023-01-30T05:21:26;100438.00;;;8.03;97.31
8101;BME280;4093;53.470;9.832;2023-01-30T05:23:55;100467.09;;;8.10;96.84
8101;BME280;4093;53.470;9.832;2023-01-30T05:26:23;100455.94;;;8.09;96.15
8101;BME280;4093;53.470;9.832;2023-01-30T05:28:51;100467.00;;;8.18;95.63
8101;BME280;4093;53.470;9.832;2023-01-30T05:31:20;100460.31;;;8.03;96.20
8101;BME280;4093;53.470;9.832;2023-01-30T05:33:50;100451.50;;;8.21;94.39
8101;BME280;4093;53.470;9.832;2023-01-30T05:36:19;100451.97;;;7.84;96.43
8101;BME280;4093;53.470;9.832;2023-01-30T05:38:47;100455.28;;;7.94;95.37
8101;BME280;4093;53.470;9.832;2023-01-30T05:41:15;100447.66;;;7.84;96.21
8101;BME280;4093;53.470;9.832;2023-01-30T05:43:43;100460.22;;;8.12;94.68
8101;BME280;4093;53.470;9.832;2023-01-30T05:46:11;100447.25;;;8.17;93.71
8101;BME280;4093;53.470;9.832;2023-01-30T05:48:39;100453.25;;;8.17;93.04
8101;BME280;4093;53.470;9.832;2023-01-30T05:51:16;100456.75;;;8.13;93.03
8101;BME280;4093;53.470;9.832;2023-01-30T05:53:44;100454.28;;;8.05;93.91
8101;BME280;4093;53.470;9.832;2023-01-30T05:56:12;100448.16;;;8.14;92.97
8101;BME280;4093;53.470;9.832;2023-01-30T05:58:40;100449.94;;;8.07;93.01
8101;BME280;4093;53.470;9.832;2023-01-30T06:01:11;100446.53;;;8.08;91.43
8101;BME280;4093;53.470;9.832;2023-01-30T06:03:39;100437.03;;;8.10;91.97
8101;BME280;4093;53.470;9.832;2023-01-30T06:06:07;100429.63;;;7.83;91.58
8101;BME280;4093;53.470;9.832;2023-01-30T06:08:35;100429.97;;;7.55;93.66
8101;BME280;4093;53.470;9.832;2023-01-30T06:11:05;100429.06;;;7.59;93.06
8101;BME280;4093;53.470;9.832;2023-01-30T06:13:34;100422.81;;;7.82;92.32
8101;BME280;4093;53.470;9.832;2023-01-30T06:16:01;100431.19;;;7.99;92.22
8101;BME280;4093;53.470;9.832;2023-01-30T06:18:29;100439.63;;;8.10;92.71
8101;BME280;4093;53.470;9.832;2023-01-30T06:20:57;100440.59;;;8.00;92.31
8101;BME280;4093;53.470;9.832;2023-01-30T06:23:24;100444.94;;;7.97;92.47
8101;BME280;4093;53.470;9.832;2023-01-30T06:25:53;100439.72;;;8.01;91.63
8101;BME280;4093;53.470;9.832;2023-01-30T06:28:23;100446.94;;;7.72;92.13
8101;BME280;4093;53.470;9.832;2023-01-30T06:30:51;100445.16;;;7.78;92.56
8101;BME280;4093;53.470;9.832;2023-01-30T06:33:19;100453.50;;;7.97;92.18
8101;BME280;4093;53.470;9.832;2023-01-30T06:35:48;100446.09;;;7.70;92.12
8101;BME280;4093;53.470;9.832;2023-01-30T06:38:17;100448.91;;;7.45;93.66
8101;BME280;4093;53.470;9.832;2023-01-30T06:40:47;100470.06;;;7.75;93.34
8101;BME280;4093;53.470;9.832;2023-01-30T06:43:16;100464.41;;;7.36;94.31
8101;BME280;4093;53.470;9.832;2023-01-30T06:45:43;100469.31;;;7.65;92.73
8101;BME280;4093;53.470;9.832;2023-01-30T06:48:11;100458.28;;;7.51;93.21
8101;BME280;4093;53.470;9.832;2023-01-30T06:50:39;100458.97;;;7.70;92.60
8101;BME280;4093;53.470;9.832;2023-01-30T06:53:07;100453.09;;;7.57;92.01
8101;BME280;4093;53.470;9.832;2023-01-30T06:55:35;100467.88;;;7.36;91.86
8101;BME280;4093;53.470;9.832;2023-01-30T06:58:05;100474.66;;;7.44;92.44
8101;BME280;4093;53.470;9.832;2023-01-30T07:00:35;100470.97;;;7.68;90.28
8101;BME280;4093;53.470;9.832;2023-01-30T07:03:07;100477.16;;;7.50;91.60
8101;BME280;4093;53.470;9.832;2023-01-30T07:05:36;100475.47;;;7.46;91.14
8101;BME280;4093;53.470;9.832;2023-01-30T07:08:04;100444.59;;;7.46;90.88
8101;BME280;4093;53.470;9.832;2023-01-30T07:10:32;100479.84;;;7.36;91.92
8101;BME280;4093;53.470;9.832;2023-01-30T07:13:01;100480.44;;;7.64;91.62
8101;BME280;4093;53.470;9.832;2023-01-30T07:15:29;100463.25;;;7.69;90.25
8101;BME280;4093;53.470;9.832;2023-01-30T07:17:59;100464.41;;;7.40;91.30
8101;BME280;4093;53.470;9.832;2023-01-30T07:20:27;100470.88;;;7.78;89.96
8101;BME280;4093;53.470;9.832;2023-01-30T07:22:56;100474.44;;;7.67;92.27
8101;BME280;4093;53.470;9.832;2023-01-30T07:25:26;100476.13;;;7.69;91.95
8101;BME280;4093;53.470;9.832;2023-01-30T07:27:56;100464.16;;;7.63;92.33
8101;BME280;4093;53.470;9.832;2023-01-30T07:30:25;100464.59;;;8.05;91.05
8101;BME280;4093;53.470;9.832;2023-01-30T07:32:55;100460.63;;;7.74;90.21
8101;BME280;4093;53.470;9.832;2023-01-30T07:35:27;100463.38;;;7.57;91.52
8101;BME280;4093;53.470;9.832;2023-01-30T07:37:55;100471.97;;;7.54;91.72
8101;BME280;4093;53.470;9.832;2023-01-30T07:40:23;100459.81;;;7.72;91.97
8101;BME280;4093;53.470;9.832;2023-01-30T07:42:55;100453.75;;;7.76;91.10
8101;BME280;4093;53.470;9.832;2023-01-30T07:45:24;100450.16;;;7.89;90.10
8101;BME280;4093;53.470;9.832;2023-01-30T07:47:52;100457.84;;;7.92;91.31
8101;BME280;4093;53.470;9.832;2023-01-30T07:50:20;100438.31;;;7.77;90.61
8101;BME280;4093;53.470;9.832;2023-01-30T07:52:50;100459.66;;;7.87;91.60
8101;BME280;4093;53.470;9.832;2023-01-30T07:55:18;100465.78;;;7.74;91.11
8101;BME280;4093;53.470;9.832;2023-01-30T07:57:46;100461.66;;;8.34;90.05
8101;BME280;4093;53.470;9.832;2023-01-30T08:00:14;100459.13;;;8.30;87.93
8101;BME280;4093;53.470;9.832;2023-01-30T08:02:43;100478.44;;;8.65;88.07
8101;BME280;4093;53.470;9.832;2023-01-30T08:05:10;100479.22;;;8.70;87.44
8101;BME280;4093;53.470;9.832;2023-01-30T08:07:38;100466.22;;;8.79;87.43
8101;BME280;4093;53.470;9.832;2023-01-30T08:10:08;100468.34;;;8.49;87.45
8101;BME280;4093;53.470;9.832;2023-01-30T08:12:38;100469.44;;;8.28;88.29
8101;BME280;4093;53.470;9.832;2023-01-30T08:15:06;100466.00;;;7.52;91.35
8101;BME280;4093;53.470;9.832;2023-01-30T08:17:34;100453.84;;;7.67;91.39
8101;BME280;4093;53.470;9.832;2023-01-30T08:20:03;100466.66;;;7.73;90.42
8101;BME280;4093;53.470;9.832;2023-01-30T08:22:31;100481.66;;;8.13;90.11
8101;BME280;4093;53.470;9.832;2023-01-30T08:24:58;100479.16;;;8.06;90.10
8101;BME280;4093;53.470;9.832;2023-01-30T08:27:28;100481.00;;;7.95;89.97
8101;BME280;4093;53.470;9.832;2023-01-30T08:29:55;100462.31;;;7.78;90.90
8101;BME280;4093;53.470;9.832;2023-01-30T08:32:23;100481.06;;;7.91;89.95
8101;BME280;4093;53.470;9.832;2023-01-30T08:34:51;100487.97;;;7.85;90.12
8101;BME280;4093;53.470;9.832;2023-01-30T08:37:19;100493.84;;;7.95;90.08
8101;BME280;4093;53.470;9.832;2023-01-30T08:39:46;100475.78;;;8.03;89.07
8101;BME280;4093;53.470;9.832;2023-01-30T08:42:14;100476.03;;;7.77;89.86
8101;BME280;4093;53.470;9.832;2023-01-30T08:44:43;100493.75;;;8.06;88.81
8101;BME280;4093;53.470;9.832;2023-01-30T08:47:11;100487.78;;;8.02;89.87
8101;BME280;4093;53.470;9.832;2023-01-30T08:49:38;100477.53;;;7.98;88.42
8101;BME280;4093;53.470;9.832;2023-01-30T08:52:06;100481.38;;;8.35;87.81
8101;BME280;4093;53.470;9.832;2023-01-30T08:54:34;100460.72;;;8.43;86.63
8101;BME280;4093;53.470;9.832;2023-01-30T08:57:02;100484.97;;;8.21;88.66
8101;BME280;4093;53.470;9.832;2023-01-30T08:59:29;100483.53;;;8.68;86.29
8101;BME280;4093;53.470;9.832;2023-01-30T09:01:59;100464.19;;;8.38;87.52
8101;BME280;4093;53.470;9.832;2023-01-30T09:04:28;100456.09;;;7.97;88.79
8101;BME280;4093;53.470;9.832;2023-01-30T09:06:56;100466.50;;;8.57;86.78
8101;BME280;4093;53.470;9.832;2023-01-30T09:09:23;100471.53;;;8.67;85.61
8101;BME280;4093;53.470;9.832;2023-01-30T09:11:51;100477.22;;;8.25;87.26
8101;BME280;4093;53.470;9.832;2023-01-30T09:14:19;100452.34;;;8.24;87.53
8101;BME280;4093;53.470;9.832;2023-01-30T09:16:48;100130.75;;;6.07;88.40
8101;BME280;4093;53.470;9.832;2023-01-30T09:19:23;100467.97;;;8.09;89.12
8101;BME280;4093;53.470;9.832;2023-01-30T09:21:51;100464.97;;;8.43;87.49
8101;BME280;4093;53.470;9.832;2023-01-30T09:24:20;100459.78;;;8.46;86.62
8101;BME280;4093;53.470;9.832;2023-01-30T09:26:52;100461.72;;;8.28;86.93
8101;BME280;4093;53.470;9.832;2023-01-30T09:29:20;100469.94;;;8.60;85.70
8101;BME280;4093;53.470;9.832;2023-01-30T09:31:48;100468.34;;;8.49;86.29
8101;BME280;4093;53.470;9.832;2023-01-30T09:34:16;100450.41;;;8.42;86.02
8101;BME280;4093;53.470;9.832;2023-01-30T09:36:45;100427.28;;;8.37;85.69
8101;BME280;4093;53.470;9.832;2023-01-30T09:39:13;100449.31;;;8.60;85.26
8101;BME280;4093;53.470;9.832;2023-01-30T09:41:56;100455.19;;;8.68;84.85
8101;BME280;4093;53.470;9.832;2023-01-30T09:44:51;100440.75;;;8.57;84.60
8101;BME280;4093;53.470;9.832;2023-01-30T09:47:27;100393.59;;;8.51;84.72
8101;BME280;4093;53.470;9.832;2023-01-30T09:50:06;100449.84;;;8.80;84.65
8101;BME280;4093;53.470;9.832;2023-01-30T09:52:48;100432.97;;;9.15;83.04
8101;BME280;4093;53.470;9.832;2023-01-30T09:55:20;100435.06;;;8.93;82.73
8101;BME280;4093;53.470;9.832;2023-01-30T09:57:50;100410.41;;;8.76;83.58
8101;BME280;4093;53.470;9.832;2023-01-30T10:00:23;100427.41;;;8.88;83.10
8101;BME280;4093;53.470;9.832;2023-01-30T10:02:57;100391.81;;;8.56;82.70
8101;BME280;4093;53.470;9.832;2023-01-30T10:05:32;100409.25;;;8.94;82.88
8101;BME280;4093;53.470;9.832;2023-01-30T10:08:15;100396.88;;;9.15;81.44
8101;BME280;4093;53.470;9.832;2023-01-30T10:10:54;100396.00;;;8.62;82.86
8101;BME280;4093;53.470;9.832;2023-01-30T10:13:47;100393.75;;;8.96;82.22
8101;BME280;4093;53.470;9.832;2023-01-30T10:16:23;100350.22;;;8.22;82.28
8101;BME280;4093;53.470;9.832;2023-01-30T10:19:13;100388.84;;;8.82;81.74
8101;BME280;4093;53.470;9.832;2023-01-30T10:22:06;100370.13;;;9.22;81.08
8101;BME280;4093;53.470;9.832;2023-01-30T10:24:48;100273.16;;;8.08;81.36
8101;BME280;4093;53.470;9.832;2023-01-30T10:27:20;100355.00;;;9.00;81.12
8101;BME280;4093;53.470;9.832;2023-01-30T10:29:52;100359.59;;;9.33;79.93
8101;BME280;4093;53.470;9.832;2023-01-30T10:32:26;100358.06;;;9.22;78.62
8101;BME280;4093;53.470;9.832;2023-01-30T10:35:00;100346.22;;;9.12;78.56
8101;BME280;4093;53.470;9.832;2023-01-30T10:37:32;100350.16;;;9.32;78.87
8101;BME280;4093;53.470;9.832;2023-01-30T10:40:11;100348.59;;;9.23;78.51
8101;BME280;4093;53.470;9.832;2023-01-30T10:42:45;100352.31;;;9.07;78.92
8101;BME280;4093;53.470;9.832;2023-01-30T10:45:18;100357.25;;;9.64;79.06
8101;BME280;4093;53.470;9.832;2023-01-30T10:47:57;100346.28;;;9.53;78.25
8101;BME280;4093;53.470;9.832;2023-01-30T10:50:38;100360.50;;;10.15;76.46
8101;BME280;4093;53.470;9.832;2023-01-30T10:53:16;100329.47;;;9.33;76.51
8101;BME280;4093;53.470;9.832;2023-01-30T10:55:49;100335.53;;;9.31;78.54
8101;BME280;4093;53.470;9.832;2023-01-30T10:58:24;100348.38;;;8.86;80.05
8101;BME280;4093;53.470;9.832;2023-01-30T11:00:57;100356.94;;;8.88;82.42
8101;BME280;4093;53.470;9.832;2023-01-30T11:03:32;100323.06;;;8.58;83.08
8101;BME280;4093;53.470;9.832;2023-01-30T11:06:05;100375.75;;;8.39;85.46
8101;BME280;4093;53.470;9.832;2023-01-30T11:08:35;100389.00;;;8.09;89.06
8101;BME280;4093;53.470;9.832;2023-01-30T11:11:29;100400.38;;;7.93;90.19
8101;BME280;4093;53.470;9.832;2023-01-30T11:14:05;100399.00;;;7.61;92.80
8101;BME280;4093;53.470;9.832;2023-01-30T11:16:41;100444.56;;;7.49;93.50
8101;BME280;4093;53.470;9.832;2023-01-30T11:19:10;100411.78;;;6.73;94.62
8101;BME280;4093;53.470;9.832;2023-01-30T11:21:48;100457.88;;;6.98;95.43
8101;BME280;4093;53.470;9.832;2023-01-30T11:24:19;100468.19;;;6.92;94.97
8101;BME280;4093;53.470;9.832;2023-01-30T11:26:49;100463.94;;;6.88;94.32
8101;BME280;4093;53.470;9.832;2023-01-30T11:29:27;100462.31;;;6.76;94.14
8101;BME280;4093;53.470;9.832;2023-01-30T11:31:55;100463.88;;;6.95;94.11
8101;BME280;4093;53.470;9.832;2023-01-30T11:34:28;100465.53;;;7.04;94.02
8101;BME280;4093;53.470;9.832;2023-01-30T11:37:11;100473.22;;;7.09;93.43
8101;BME280;4093;53.470;9.832;2023-01-30T11:39:47;100467.34;;;6.93;93.39
8101;BME280;4093;53.470;9.832;2023-01-30T11:42:20;100454.78;;;6.42;94.96
8101;BME280;4093;53.470;9.832;2023-01-30T11:44:54;100380.34;;;6.41;93.54
8101;BME280;4093;53.470;9.832;2023-01-30T11:47:47;100467.50;;;6.67;94.56
8101;BME280;4093;53.470;9.832;2023-01-30T11:50:28;100466.19;;;7.34;92.82
8101;BME280;4093;53.470;9.832;2023-01-30T11:53:28;100467.50;;;7.75;92.29
8101;BME280;4093;53.470;9.832;2023-01-30T11:55:58;100446.22;;;7.59;91.96
8101;BME280;4093;53.470;9.832;2023-01-30T11:58:36;100421.84;;;7.91;90.46
8101;BME280;4093;53.470;9.832;2023-01-30T12:01:07;100441.72;;;7.78;91.05
8101;BME280;4093;53.470;9.832;2023-01-30T12:03:44;100434.81;;;7.80;91.15
8101;BME280;4093;53.470;9.832;2023-01-30T12:06:20;100423.03;;;7.60;92.27
8101;BME280;4093;53.470;9.832;2023-01-30T12:08:51;100416.38;;;7.39;92.32
8101;BME280;4093;53.470;9.832;2023-01-30T12:11:29;100424.63;;;7.71;92.24
8101;BME280;4093;53.470;9.832;2023-01-30T12:14:18;100415.44;;;7.48;92.02
8101;BME280;4093;53.470;9.832;2023-01-30T12:16:55;100431.66;;;7.56;92.80
8101;BME280;4093;53.470;9.832;2023-01-30T12:19:35;100418.50;;;7.84;92.19
8101;BME280;4093;53.470;9.832;2023-01-30T12:22:16;100420.34;;;7.71;92.66
8101;BME280;4093;53.470;9.832;2023-01-30T12:24:53;100429.59;;;7.86;92.06
8101;BME280;4093;53.470;9.832;2023-01-30T12:27:30;100399.84;;;7.65;92.30
8101;BME280;4093;53.470;9.832;2023-01-30T12:30:17;100426.94;;;7.10;93.15
8101;BME280;4093;53.470;9.832;2023-01-30T12:40:27;100447.13;;;6.41;93.75
8101;BME280;4093;53.470;9.832;2023-01-30T12:43:13;100445.44;;;6.29;95.78
8101;BME280;4093;53.470;9.832;2023-01-30T12:45:54;100454.66;;;6.71;95.22
8101;BME280;4093;53.470;9.832;2023-01-30T12:48:36;100459.75;;;6.78;94.67
8101;BME280;4093;53.470;9.832;2023-01-30T12:51:24;100461.28;;;6.99;94.37
8101;BME280;4093;53.470;9.832;2023-01-30T12:54:06;100459.56;;;7.05;94.84
8101;BME280;4093;53.470;9.832;2023-01-30T12:56:48;100396.25;;;6.89;95.64
8101;BME280;4093;53.470;9.832;2023-01-30T12:59:22;100449.78;;;7.42;95.01
8101;BME280;4093;53.470;9.832;2023-01-30T13:02:05;100469.38;;;7.57;94.54
8101;BME280;4093;53.470;9.832;2023-01-30T13:04:50;100471.03;;;7.63;91.96
8101;BME280;4093;53.470;9.832;2023-01-30T13:07:36;100475.13;;;7.82;90.26
8101;BME280;4093;53.470;9.832;2023-01-30T13:10:16;100460.63;;;7.74;89.55
8101;BME280;4093;53.470;9.832;2023-01-30T13:12:54;100479.16;;;8.06;89.90
8101;BME280;4093;53.470;9.832;2023-01-30T13:15:33;100449.22;;;7.99;88.91
8101;BME280;4093;53.470;9.832;2023-01-30T13:18:09;100464.44;;;8.15;87.92
8101;BME280;4093;53.470;9.832;2023-01-30T13:20:50;100478.53;;;7.84;88.98
8101;BME280;4093;53.470;9.832;2023-01-30T13:23:22;100468.34;;;7.74;88.38
8101;BME280;4093;53.470;9.832;2023-01-30T13:25:57;100509.31;;;7.95;89.19
8101;BME280;4093;53.470;9.832;2023-01-30T13:28:32;100511.13;;;7.85;87.95
8101;BME280;4093;53.470;9.832;2023-01-30T13:31:04;100485.50;;;7.73;87.53
8101;BME280;4093;53.470;9.832;2023-01-30T13:33:36;100498.56;;;8.35;86.41
8101;BME280;4093;53.470;9.832;2023-01-30T13:36:13;100499.97;;;8.62;85.38
8101;BME280;4093;53.470;9.832;2023-01-30T13:38:51;100485.75;;;8.29;86.57
8101;BME280;4093;53.470;9.832;2023-01-30T13:41:24;100501.97;;;8.39;86.08
8101;BME280;4093;53.470;9.832;2023-01-30T13:43:53;100489.16;;;8.31;87.20
8101;BME280;4093;53.470;9.832;2023-01-30T13:46:24;100501.84;;;8.49;86.14
8101;BME280;4093;53.470;9.832;2023-01-30T13:49:03;100416.00;;;7.78;86.54
8101;BME280;4093;53.470;9.832;2023-01-30T13:51:43;100498.88;;;8.09;86.16
8101;BME280;4093;53.470;9.832;2023-01-30T13:54:27;100517.44;;;8.35;85.26
8101;BME280;4093;53.470;9.832;2023-01-30T13:57:06;100536.94;;;8.60;85.10
8101;BME280;4093;53.470;9.832;2023-01-30T14:03:14;100540.63;;;8.37;85.86